Time;durP1;ratioP1;P1;durP2;ratioP2;P2;SDS_P1;SDS_P2;PMS_P1;PMS_P2;Temp;Humidity;BMP_temperature;BMP_pressure;BME280_temperature;BME280_humidity;BME280_pressure;Samples;Min_cycle;Max_cycle;Signal;HPM_P1;HPM_P2
2022/06/16 00:01:48;;;;;;;3.97;1.67;;;14.50;99.90;;;;;;5043147;28;20181;-57
2022/06/16 00:04:14;;;;;;;5.97;2.22;;;14.40;99.90;;;;;;5033489;28;20224;-57
2022/06/16 00:06:40;;;;;;;9.98;2.65;;;14.30;99.90;;;;;;5033714;28;20227;-57
2022/06/16 00:09:05;;;;;;;8.00;2.83;;;14.20;99.90;;;;;;5033481;28;20563;-57
2022/06/16 00:11:34;;;;;;;10.13;2.58;;;14.20;99.90;;;;;;5033406;28;20173;-58
2022/06/16 00:14:05;;;;;;;9.25;2.67;;;14.20;99.90;;;;;;5033286;28;20191;-57
2022/06/16 00:16:31;;;;;;;10.63;2.67;;;14.20;99.90;;;;;;5033223;28;20170;-57
2022/06/16 00:18:57;;;;;;;7.80;2.53;;;;;;;;;;5033230;28;20224;-57
2022/06/16 00:21:23;;;;;;;7.32;2.42;;;14.00;99.90;;;;;;5033114;28;20210;-58
2022/06/16 00:23:49;;;;;;;7.68;2.75;;;14.20;99.90;;;;;;5033218;28;20217;-57
2022/06/16 00:26:23;;;;;;;7.10;2.78;;;14.10;99.90;;;;;;5033205;28;20170;-57
2022/06/16 00:28:49;;;;;;;7.95;2.70;;;14.20;99.90;;;;;;5032962;28;20228;-57
2022/06/16 00:31:18;;;;;;;7.72;2.92;;;14.20;99.90;;;;;;5032928;28;20193;-58
2022/06/16 00:33:45;;;;;;;6.70;2.50;;;14.10;99.90;;;;;;5033227;28;20178;-57
2022/06/16 00:36:11;;;;;;;11.07;2.67;;;14.10;99.90;;;;;;5038005;28;20178;-57
2022/06/16 00:38:37;;;;;;;6.82;2.45;;;14.10;99.90;;;;;;5052879;28;20235;-57
2022/06/16 00:41:04;;;;;;;11.43;2.80;;;14.00;99.90;;;;;;5043645;28;20204;-57
2022/06/16 00:43:30;;;;;;;8.68;3.00;;;14.00;99.90;;;;;;5032616;28;20170;-57
2022/06/16 00:46:02;;;;;;;10.95;3.05;;;14.00;99.90;;;;;;5032675;28;20184;-58
2022/06/16 00:48:41;;;;;;;11.25;2.92;;;14.00;99.90;;;;;;5031272;28;20170;-57
2022/06/16 00:51:29;;;;;;;9.00;2.42;;;13.90;99.90;;;;;;5032336;28;20271;-57
2022/06/16 00:54:02;;;;;;;7.78;2.65;;;13.90;99.90;;;;;;5047188;28;20173;-57
2022/06/16 00:56:27;;;;;;;10.90;3.28;;;13.90;99.90;;;;;;5052416;28;20169;-57
2022/06/16 00:58:57;;;;;;;14.52;3.30;;;13.90;99.90;;;;;;5052371;28;20711;-57
2022/06/16 01:01:30;;;;;;;15.23;3.10;;;14.20;99.90;;;;;;5052514;28;20184;-57
2022/06/16 01:06:42;;;;;;;9.55;2.75;;;13.80;99.90;;;;;;5052167;28;20223;-57
2022/06/16 01:09:18;;;;;;;10.73;3.10;;;13.70;99.90;;;;;;5052129;28;20216;-57
2022/06/16 01:15:15;;;;;;;7.38;3.05;;;13.70;99.90;;;;;;5052456;28;20220;-57
2022/06/16 01:18:03;;;;;;;9.20;3.30;;;13.80;99.90;;;;;;5052365;28;20173;-57
2022/06/16 01:20:52;;;;;;;9.38;3.28;;;13.70;99.90;;;;;;5052013;28;20189;-58
2022/06/16 01:23:50;;;;;;;12.25;3.50;;;13.70;99.90;;;;;;5051901;28;20181;-57
2022/06/16 01:26:39;;;;;;;8.70;3.03;;;13.60;99.90;;;;;;5020544;28;20670;-58
2022/06/16 01:29:33;;;;;;;6.50;3.03;;;13.70;99.90;;;;;;5047924;28;20244;-58
2022/06/16 01:32:17;;;;;;;12.32;3.30;;;13.60;99.90;;;;;;5031470;28;20184;-58
2022/06/16 01:35:07;;;;;;;10.02;3.42;;;13.70;99.90;;;;;;5031993;28;20232;-57
2022/06/16 01:37:55;;;;;;;9.00;3.65;;;13.70;99.90;;;;;;5031655;28;20185;-57
2022/06/16 01:40:43;;;;;;;13.13;3.80;;;13.70;99.90;;;;;;5030308;28;20633;-57
2022/06/16 01:43:19;;;;;;;8.52;3.53;;;13.60;99.90;;;;;;5031606;28;20215;-56
2022/06/16 01:45:47;;;;;;;7.72;2.92;;;13.60;99.90;;;;;;5031511;28;20515;-57
2022/06/16 01:48:15;;;;;;;6.50;2.83;;;13.50;99.90;;;;;;5031452;28;20253;-57
2022/06/16 01:50:59;;;;;;;8.70;2.90;;;13.40;99.90;;;;;;5031212;28;20221;-57
2022/06/16 01:53:39;;;;;;;8.95;3.13;;;13.40;99.90;;;;;;5031425;28;20177;-57
2022/06/16 01:56:21;;;;;;;12.07;3.45;;;13.40;99.90;;;;;;5031419;28;20188;-57
2022/06/16 01:58:58;;;;;;;12.25;3.78;;;13.30;99.90;;;;;;5031233;28;20171;-57
2022/06/16 02:01:27;;;;;;;9.98;3.60;;;13.30;99.90;;;;;;5030871;28;20201;-57
2022/06/16 02:03:59;;;;;;;11.27;3.53;;;13.40;99.90;;;;;;5031216;28;20660;-57
2022/06/16 02:06:30;;;;;;;10.00;3.35;;;13.40;99.90;;;;;;5031199;28;20210;-58
2022/06/16 02:09:01;;;;;;;11.35;3.50;;;13.40;99.90;;;;;;5031164;28;20193;-58
2022/06/16 02:11:32;;;;;;;11.65;3.40;;;13.40;99.90;;;;;;5031219;28;20201;-57
2022/06/16 02:14:00;;;;;;;9.48;3.35;;;13.30;99.90;;;;;;5031025;28;20636;-57
2022/06/16 02:16:31;;;;;;;6.65;3.10;;;13.30;99.90;;;;;;5031189;28;20170;-57
2022/06/16 02:19:00;;;;;;;9.13;3.53;;;13.30;99.90;;;;;;5031067;28;20166;-57
2022/06/16 02:21:36;;;;;;;10.23;3.72;;;13.30;99.90;;;;;;5031020;28;20629;-57
2022/06/16 02:24:07;;;;;;;9.75;3.33;;;13.40;99.90;;;;;;5029763;28;20690;-57
2022/06/16 02:26:34;;;;;;;10.75;3.92;;;13.40;99.90;;;;;;5031169;28;20563;-57
2022/06/16 02:29:03;;;;;;;12.13;3.65;;;13.30;99.90;;;;;;5030814;28;20198;-57
2022/06/16 02:31:40;;;;;;;9.15;3.20;;;13.30;99.90;;;;;;5030921;28;20174;-57
2022/06/16 02:34:21;;;;;;;7.50;3.65;;;13.20;99.90;;;;;;5030845;28;20165;-56
2022/06/16 02:37:20;;;;;;;7.78;3.30;;;13.20;99.90;;;;;;5030960;28;20181;-58
2022/06/16 02:40:23;;;;;;;10.77;3.30;;;13.30;99.90;;;;;;5030939;28;20178;-57
2022/06/16 02:43:01;;;;;;;6.93;3.10;;;13.20;99.90;;;;;;5031068;28;20262;-57
2022/06/16 02:45:36;;;;;;;7.20;3.20;;;13.20;99.90;;;;;;5030858;28;20185;-57
2022/06/16 02:48:20;;;;;;;13.38;3.80;;;13.20;99.90;;;;;;5030943;28;20184;-57
2022/06/16 02:51:11;;;;;;;10.23;3.63;;;13.10;99.90;;;;;;5030497;28;20235;-57
2022/06/16 02:56:23;;;;;;;10.18;3.63;;;12.90;99.90;;;;;;5030817;28;20659;-57
2022/06/16 02:58:50;;;;;;;10.85;3.80;;;12.80;99.90;;;;;;5030783;28;20162;-58
2022/06/16 03:01:18;;;;;;;11.75;3.60;;;12.90;99.90;;;;;;5030633;28;20190;-58
2022/06/16 03:04:01;;;;;;;7.30;3.55;;;12.80;99.90;;;;;;5030919;28;20228;-58
2022/06/16 03:06:27;;;;;;;5.10;3.10;;;12.80;99.90;;;;;;5030707;28;20169;-58
2022/06/16 03:08:55;;;;;;;8.18;3.25;;;13.00;99.90;;;;;;5030547;28;20204;-58
2022/06/16 03:11:20;;;;;;;9.57;3.67;;;12.90;99.90;;;;;;5030536;28;20265;-58
2022/06/16 03:13:46;;;;;;;8.80;4.03;;;12.90;99.90;;;;;;5031357;28;20178;-58
2022/06/16 03:16:12;;;;;;;12.63;3.83;;;12.80;99.90;;;;;;5034443;28;20542;-58
2022/06/16 03:18:37;;;;;;;9.80;3.63;;;12.90;99.90;;;;;;5034446;28;20653;-58
2022/06/16 03:21:03;;;;;;;9.55;3.90;;;12.90;99.90;;;;;;5034357;28;20684;-58
2022/06/16 03:23:30;;;;;;;7.85;3.75;;;12.80;99.90;;;;;;5034088;28;20758;-58
2022/06/16 03:25:55;;;;;;;10.45;4.03;;;12.90;99.90;;;;;;5034234;28;20170;-58
2022/06/16 03:28:21;;;;;;;11.00;3.47;;;12.90;99.90;;;;;;5034045;28;20177;-58
2022/06/16 03:30:47;;;;;;;9.77;3.80;;;13.00;99.90;;;;;;5034383;28;20320;-58
2022/06/16 03:33:13;;;;;;;8.50;3.70;;;12.90;99.90;;;;;;5034073;28;20174;-58
2022/06/16 03:35:41;;;;;;;8.75;3.60;;;12.90;99.90;;;;;;5034215;28;20178;-57
2022/06/16 03:40:59;;;;;;;10.30;3.70;;;12.70;99.90;;;;;;5025135;28;20247;-58
2022/06/16 03:43:24;;;;;;;7.72;3.65;;;12.70;99.90;;;;;;5033768;28;20177;-58
2022/06/16 03:45:50;;;;;;;10.27;3.83;;;12.80;99.90;;;;;;5033765;28;20181;-58
2022/06/16 03:48:16;;;;;;;11.63;3.72;;;12.80;99.90;;;;;;5033627;28;20218;-57
2022/06/16 03:50:42;;;;;;;9.83;4.10;;;12.80;99.90;;;;;;5033440;28;20236;-58
2022/06/16 03:53:08;;;;;;;9.80;3.87;;;12.80;99.90;;;;;;5033541;28;20174;-58
2022/06/16 03:55:34;;;;;;;9.27;3.92;;;12.70;99.90;;;;;;5033405;28;20640;-58
2022/06/16 03:57:59;;;;;;;8.38;3.88;;;12.70;99.90;;;;;;5033499;28;20162;-58
2022/06/16 04:00:25;;;;;;;7.20;3.72;;;12.80;99.90;;;;;;5033467;28;20691;-58
2022/06/16 04:03:59;;;;;;;12.85;4.13;;;12.80;99.90;;;;;;5033333;28;20193;-58
2022/06/16 04:05:37;;;;;;;7.75;4.13;;;12.80;99.90;;;;;;5041882;28;20177;-58
2022/06/16 04:08:03;;;;;;;11.35;4.65;;;12.90;99.90;;;;;;5034969;28;20176;-58
2022/06/16 04:10:29;;;;;;;10.90;4.45;;;12.90;99.90;;;;;;5037742;28;20231;-58
2022/06/16 04:12:55;;;;;;;13.27;3.50;;;13.00;99.90;;;;;;5053224;28;20644;-58
2022/06/16 04:15:20;;;;;;;9.50;3.60;;;13.00;99.90;;;;;;5053208;28;20269;-58
2022/06/16 04:17:46;;;;;;;9.50;3.75;;;12.90;99.90;;;;;;5053101;28;20627;-57
2022/06/16 04:20:12;;;;;;;11.88;4.03;;;12.90;99.90;;;;;;5052587;28;20702;-58
2022/06/16 04:22:38;;;;;;;8.30;3.70;;;12.90;99.90;;;;;;5052646;28;20165;-58
2022/06/16 04:25:06;;;;;;;10.60;4.05;;;13.00;99.90;;;;;;5052247;28;20208;-58
2022/06/16 04:27:31;;;;;;;8.43;3.67;;;13.00;99.90;;;;;;5052706;28;20166;-58
2022/06/16 04:29:57;;;;;;;7.80;3.22;;;12.90;99.90;;;;;;5052707;28;20240;-59
2022/06/16 04:32:22;;;;;;;8.18;4.10;;;12.90;99.90;;;;;;5052742;28;20165;-58
2022/06/16 04:34:48;;;;;;;11.85;3.90;;;12.90;99.90;;;;;;5052730;28;20655;-57
2022/06/16 04:37:14;;;;;;;8.85;3.63;;;12.90;99.90;;;;;;5052458;28;20758;-58
2022/06/16 04:39:40;;;;;;;8.95;3.83;;;12.90;99.90;;;;;;5052625;28;20176;-58
2022/06/16 04:42:06;;;;;;;7.72;3.42;;;12.90;99.90;;;;;;5052538;28;20161;-58
2022/06/16 04:44:34;;;;;;;10.52;4.15;;;12.90;99.90;;;;;;5052404;28;20170;-56
2022/06/16 04:47:01;;;;;;;13.13;4.18;;;12.90;99.90;;;;;;5052332;28;20169;-58
2022/06/16 04:49:28;;;;;;;11.00;4.00;;;13.00;99.90;;;;;;5052202;28;20244;-58
2022/06/16 04:51:53;;;;;;;8.23;3.85;;;13.00;99.90;;;;;;5052128;28;20579;-58
2022/06/16 04:54:19;;;;;;;8.77;3.90;;;13.00;99.90;;;;;;5052297;28;20177;-58
2022/06/16 04:56:45;;;;;;;10.63;3.78;;;13.00;99.90;;;;;;5052213;28;20260;-58
2022/06/16 04:59:13;;;;;;;8.50;3.88;;;13.00;99.90;;;;;;5052327;28;20173;-58
2022/06/16 05:01:39;;;;;;;7.45;4.00;;;13.00;99.90;;;;;;5052058;28;20548;-56
2022/06/16 05:04:05;;;;;;;10.10;3.60;;;13.00;99.90;;;;;;5052004;28;20223;-57
2022/06/16 05:06:31;;;;;;;9.68;4.15;;;13.10;99.90;;;;;;5052214;28;20174;-57
2022/06/16 05:08:57;;;;;;;8.68;4.20;;;13.10;99.90;;;;;;5051874;28;20671;-58
2022/06/16 05:11:23;;;;;;;10.93;3.90;;;13.20;99.90;;;;;;5051870;28;20173;-57
2022/06/16 05:13:48;;;;;;;13.63;4.50;;;13.20;99.90;;;;;;5051799;28;20528;-57
2022/06/16 05:16:14;;;;;;;8.07;4.10;;;13.30;99.90;;;;;;5051865;28;20174;-57
2022/06/16 05:18:40;;;;;;;11.95;4.50;;;13.30;99.90;;;;;;5051787;28;20679;-57
2022/06/16 05:21:12;;;;;;;11.40;4.55;;;13.40;99.90;;;;;;5051613;28;20252;-57
2022/06/16 05:23:38;;;;;;;14.27;4.32;;;13.50;99.90;;;;;;5051880;28;20177;-57
2022/06/16 05:26:05;;;;;;;9.10;4.35;;;13.50;99.90;;;;;;5051673;28;20230;-57
2022/06/16 05:28:32;;;;;;;11.55;4.25;;;13.60;99.90;;;;;;5051487;28;20256;-57
2022/06/16 05:30:58;;;;;;;10.90;4.43;;;13.70;99.90;;;;;;5051549;28;20604;-57
2022/06/16 05:33:24;;;;;;;11.75;4.30;;;13.70;99.90;;;;;;5051406;28;20177;-57
2022/06/16 05:36:04;;;;;;;14.63;4.15;;;13.70;99.90;;;;;;5051361;28;20531;-57
2022/06/16 05:38:30;;;;;;;13.30;4.60;;;13.70;99.90;;;;;;5033116;28;20173;-57
2022/06/16 05:40:58;;;;;;;9.65;4.72;;;13.70;99.90;;;;;;5051312;28;20627;-57
2022/06/16 05:43:23;;;;;;;14.18;4.95;;;13.80;99.90;;;;;;5051262;28;20734;-57
2022/06/16 05:45:49;;;;;;;12.02;5.28;;;13.80;99.90;;;;;;5051118;28;20252;-56
2022/06/16 05:48:15;;;;;;;15.23;4.82;;;13.80;99.90;;;;;;5051370;28;20176;-57
2022/06/16 05:50:40;;;;;;;16.10;4.97;;;13.90;99.90;;;;;;5050815;28;20703;-57
2022/06/16 05:53:06;;;;;;;10.32;4.85;;;13.90;99.90;;;;;;5051050;28;20208;-56
2022/06/16 05:55:31;;;;;;;13.45;4.47;;;13.90;99.90;;;;;;5051010;28;20620;-57
2022/06/16 05:57:57;;;;;;;11.48;5.53;;;14.00;99.90;;;;;;5051128;28;20583;-57
2022/06/16 06:00:23;;;;;;;16.52;5.13;;;14.00;99.90;;;;;;5050945;28;20197;-57
2022/06/16 06:02:51;;;;;;;11.60;5.15;;;14.10;99.90;;;;;;5051170;28;20173;-57
2022/06/16 06:05:17;;;;;;;15.60;5.20;;;14.20;99.90;;;;;;5050836;28;20176;-57
2022/06/16 06:18:39;;;;;;;15.10;4.93;;;14.70;99.90;;;;;;5051002;28;20258;-57
2022/06/16 06:21:05;;;;;;;14.63;5.45;;;14.80;99.90;;;;;;5050649;28;20626;-56
2022/06/16 06:23:31;;;;;;;12.48;4.70;;;14.90;99.90;;;;;;5039815;28;20655;-57
2022/06/16 06:25:56;;;;;;;12.68;5.00;;;15.10;99.90;;;;;;5047826;28;20223;-57
2022/06/16 06:28:23;;;;;;;9.35;4.05;;;15.10;99.90;;;;;;5046364;28;20662;-58
2022/06/16 06:30:49;;;;;;;13.77;4.45;;;15.10;99.90;;;;;;5030569;28;20237;-56
2022/06/16 06:33:15;;;;;;;16.25;5.15;;;15.20;99.90;;;;;;5030551;28;20177;-56
2022/06/16 06:35:41;;;;;;;18.50;5.43;;;15.30;99.90;;;;;;5030633;28;20633;-55
2022/06/16 06:38:07;;;;;;;14.32;4.53;;;15.50;99.90;;;;;;5030565;28;20182;-56
2022/06/16 06:40:35;;;;;;;8.15;4.10;;;15.50;99.90;;;;;;5030621;28;20645;-56
2022/06/16 06:43:02;;;;;;;12.20;4.43;;;15.50;99.90;;;;;;5030568;28;20170;-55
2022/06/16 06:45:28;;;;;;;14.55;4.00;;;15.60;99.90;;;;;;5030717;28;20251;-58
2022/06/16 06:47:54;;;;;;;10.48;3.88;;;15.70;99.90;;;;;;5031600;28;20170;-56
2022/06/16 06:50:26;;;;;;;7.07;3.47;;;15.80;99.90;;;;;;5034312;28;20229;-57
2022/06/16 06:52:52;;;;;;;5.38;3.00;;;15.80;99.90;;;;;;5034565;28;20174;-57
2022/06/16 06:55:18;;;;;;;8.50;3.90;;;15.90;99.90;;;;;;5033189;28;20551;-57
2022/06/16 06:57:45;;;;;;;9.98;4.63;;;16.00;99.90;;;;;;5034412;28;20181;-56
2022/06/16 07:00:14;;;;;;;10.82;4.15;;;16.10;99.90;;;;;;5034438;28;20204;-57
2022/06/16 07:02:40;;;;;;;10.13;4.20;;;16.20;99.90;;;;;;5034296;28;20173;-57
2022/06/16 07:05:06;;;;;;;8.10;3.75;;;16.30;99.90;;;;;;5034466;28;20178;-58
2022/06/16 07:07:33;;;;;;;9.07;3.92;;;16.40;99.90;;;;;;5034364;28;20162;-58
2022/06/16 07:09:59;;;;;;;11.68;3.38;;;16.50;99.90;;;;;;5034113;28;20292;-57
2022/06/16 07:12:25;;;;;;;11.63;4.45;;;16.50;99.90;;;;;;5034038;28;20683;-57
2022/06/16 07:14:51;;;;;;;7.55;3.53;;;16.60;99.90;;;;;;5034066;28;20585;-57
2022/06/16 07:17:20;;;;;;;9.75;4.40;;;16.70;99.90;;;;;;5034037;28;20170;-57
2022/06/16 07:19:45;;;;;;;10.98;3.95;;;16.70;99.90;;;;;;5034432;28;20182;-58
2022/06/16 07:22:11;;;;;;;9.27;3.70;;;16.80;99.90;;;;;;5034240;28;20691;-57
2022/06/16 07:24:36;;;;;;;10.30;3.85;;;16.90;99.90;;;;;;5033955;28;20663;-57
2022/06/16 07:27:03;;;;;;;12.02;3.85;;;17.00;99.90;;;;;;5033910;28;20593;-57
2022/06/16 07:29:29;;;;;;;6.50;3.85;;;17.00;99.90;;;;;;5033832;28;20210;-57
2022/06/16 07:31:55;;;;;;;10.05;3.85;;;;;;;;;;5033616;28;20181;-57
2022/06/16 07:34:21;;;;;;;12.68;4.10;;;17.20;99.90;;;;;;5033919;28;20178;-57
2022/06/16 07:36:47;;;;;;;11.32;4.20;;;17.30;99.90;;;;;;5033685;28;20181;-57
2022/06/16 07:39:13;;;;;;;10.73;4.18;;;17.40;99.90;;;;;;5033688;28;20257;-57
2022/06/16 07:41:39;;;;;;;10.18;3.63;;;17.60;99.90;;;;;;5033643;28;20632;-57
2022/06/16 07:44:12;;;;;;;8.48;3.92;;;17.60;99.90;;;;;;5033543;28;20621;-57
2022/06/16 07:46:42;;;;;;;17.80;4.20;;;17.80;99.90;;;;;;5033405;28;20618;-57
2022/06/16 07:49:10;;;;;;;12.77;4.00;;;18.00;99.90;;;;;;5032248;28;20214;-57
2022/06/16 07:51:36;;;;;;;9.25;4.47;;;18.10;99.90;;;;;;5033433;28;20221;-57
2022/06/16 07:54:02;;;;;;;11.85;4.00;;;18.20;99.90;;;;;;5033615;28;20177;-57
2022/06/16 07:56:28;;;;;;;11.48;4.50;;;18.30;99.90;;;;;;5033413;28;20170;-57
2022/06/16 07:58:54;;;;;;;6.28;4.30;;;18.60;99.90;;;;;;5033252;28;20545;-57
2022/06/16 08:01:20;;;;;;;13.63;4.32;;;18.60;99.90;;;;;;5032651;28;20202;-56
2022/06/16 08:03:46;;;;;;;6.78;4.00;;;18.70;99.90;;;;;;5033070;28;20662;-56
2022/06/16 08:06:17;;;;;;;10.68;4.43;;;18.90;99.90;;;;;;5033248;28;20170;-57
2022/06/16 08:08:43;;;;;;;13.93;4.43;;;19.00;99.90;;;;;;5032903;28;20166;-57
2022/06/16 08:12:03;;;;;;;9.05;4.45;;;19.30;99.90;;;;;;5032951;28;20185;-57
2022/06/16 08:13:56;;;;;;;13.35;4.45;;;19.20;99.90;;;;;;5032842;28;20184;-57
2022/06/16 08:16:22;;;;;;;9.88;4.10;;;19.30;99.90;;;;;;5033031;28;20209;-57
2022/06/16 08:18:48;;;;;;;11.30;4.90;;;19.50;99.90;;;;;;5032830;28;20208;-57
2022/06/16 08:21:14;;;;;;;10.82;4.20;;;19.70;99.90;;;;;;5032619;28;20174;-56
2022/06/16 08:23:40;;;;;;;13.18;4.80;;;19.80;99.90;;;;;;5032663;28;20224;-57
2022/06/16 08:26:05;;;;;;;12.60;4.88;;;19.90;99.90;;;;;;5032657;28;20178;-56
2022/06/16 08:28:33;;;;;;;12.63;4.65;;;20.00;99.90;;;;;;5032635;28;20174;-57
2022/06/16 08:31:00;;;;;;;12.63;4.55;;;20.20;99.90;;;;;;5032543;28;20252;-56
2022/06/16 08:33:27;;;;;;;13.95;4.53;;;20.20;99.90;;;;;;5034450;28;20181;-56
2022/06/16 08:35:53;;;;;;;11.75;4.43;;;20.50;99.90;;;;;;5023136;28;20543;-56
2022/06/16 08:38:19;;;;;;;10.55;4.25;;;20.50;99.90;;;;;;5052354;28;20169;-57
2022/06/16 08:40:47;;;;;;;11.82;4.60;;;20.60;99.90;;;;;;5052222;28;20169;-56
2022/06/16 08:43:29;;;;;;;18.17;4.82;;;20.70;99.90;;;;;;5052397;28;20173;-56
2022/06/16 08:45:59;;;;;;;8.20;4.15;;;20.90;99.90;;;;;;5052440;28;20165;-57
2022/06/16 08:48:34;;;;;;;13.82;4.47;;;21.40;99.90;;;;;;5052215;28;20215;-56
2022/06/16 08:51:12;;;;;;;16.98;4.20;;;21.50;99.90;;;;;;5052059;28;20228;-57
2022/06/16 08:53:39;;;;;;;13.88;4.88;;;21.80;99.90;;;;;;5052278;28;20161;-57
2022/06/16 08:56:36;;;;;;;14.68;4.63;;;21.60;99.90;;;;;;5052200;28;20619;-58
2022/06/16 08:59:12;;;;;;;13.48;3.92;;;21.80;99.90;;;;;;4997777;28;20210;-57
2022/06/16 09:01:51;;;;;;;10.65;4.22;;;22.30;99.90;;;;;;5051825;28;20179;-57
2022/06/16 09:04:37;;;;;;;12.18;4.40;;;22.90;99.90;;;;;;5051934;28;20561;-58
2022/06/16 09:07:08;;;;;;;10.52;4.35;;;23.10;99.90;;;;;;5052130;28;20180;-57
2022/06/16 09:12:48;;;;;;;13.98;5.25;;;22.90;99.90;;;;;;5050751;28;20234;-57
2022/06/16 09:15:29;;;;;;;10.88;4.93;;;22.90;99.90;;;;;;5051813;28;20271;-57
2022/06/16 09:18:17;;;;;;;15.73;5.28;;;23.20;99.90;;;;;;5051686;28;20173;-57
2022/06/16 09:21:03;;;;;;;8.48;5.07;;;23.90;99.90;;;;;;5051902;28;20188;-57
2022/06/16 09:23:55;;;;;;;12.25;5.60;;;23.20;99.90;;;;;;5051755;28;20180;-57
2022/06/16 09:26:36;;;;;;;16.75;5.95;;;23.30;99.90;;;;;;5051673;28;20181;-58
2022/06/16 09:29:16;;;;;;;9.73;5.40;;;23.70;99.90;;;;;;5051389;28;20181;-58
2022/06/16 09:31:49;;;;;;;13.30;5.00;;;23.80;99.90;;;;;;5051513;28;20701;-58
2022/06/16 09:35:00;;;;;;;14.45;5.43;;;24.40;99.90;;;;;;5051524;28;20173;-57
2022/06/16 09:37:46;;;;;;;12.75;5.13;;;24.70;99.90;;;;;;5051492;28;20212;-57
2022/06/16 09:40:26;;;;;;;14.95;4.63;;;24.80;99.90;;;;;;5051489;28;20200;-58
2022/06/16 09:42:59;;;;;;;9.80;4.80;;;24.90;99.90;;;;;;5051437;28;20185;-58
2022/06/16 09:45:59;;;;;;;11.15;5.43;;;24.80;99.90;;;;;;5051168;28;20624;-57
2022/06/16 09:48:43;;;;;;;14.70;5.47;;;24.70;99.90;;;;;;5047817;28;20188;-58
2022/06/16 09:51:30;;;;;;;15.20;5.60;;;24.70;99.90;;;;;;5050994;28;20559;-58
2022/06/16 09:54:05;;;;;;;13.18;4.88;;;24.80;99.90;;;;;;5033415;28;20193;-58
2022/06/16 09:57:06;;;;;;;12.25;4.85;;;25.00;99.90;;;;;;5051097;28;20183;-57
2022/06/16 09:59:54;;;;;;;10.55;5.07;;;25.10;99.90;;;;;;5047025;28;20177;-58
2022/06/16 10:02:23;;;;;;;17.98;5.75;;;25.20;99.90;;;;;;5050516;28;20181;-57
2022/06/16 10:04:53;;;;;;;10.05;5.05;;;25.50;99.90;;;;;;5050883;28;20717;-57
2022/06/16 10:07:36;;;;;;;10.07;5.05;;;25.60;99.90;;;;;;5032961;28;20199;-58
2022/06/16 10:10:20;;;;;;;16.42;5.85;;;25.60;99.90;;;;;;5050903;28;20230;-58
2022/06/16 10:13:06;;;;;;;12.70;5.25;;;25.70;99.90;;;;;;5050884;28;20691;-58
2022/06/16 10:15:44;;;;;;;8.85;4.10;;;26.10;99.90;;;;;;5050859;28;20668;-58
2022/06/16 10:18:11;;;;;;;16.75;4.97;;;26.10;99.90;;;;;;5050873;28;20169;-58
2022/06/16 10:20:38;;;;;;;11.43;4.82;;;25.60;99.90;;;;;;5050677;28;20168;-58
2022/06/16 10:23:22;;;;;;;10.75;5.03;;;25.90;99.90;;;;;;5050142;28;20227;-58
2022/06/16 10:25:59;;;;;;;13.25;4.68;;;26.20;99.90;;;;;;5050665;28;20170;-58
2022/06/16 10:28:27;;;;;;;9.45;4.95;;;26.10;99.90;;;;;;5050657;28;20239;-62
2022/06/16 10:30:52;;;;;;;16.50;4.75;;;26.20;99.90;;;;;;5050501;28;20271;-59
2022/06/16 10:33:24;;;;;;;13.85;5.28;;;26.60;99.90;;;;;;5050490;28;20162;-58
2022/06/16 10:36:01;;;;;;;17.38;4.65;;;26.60;99.90;;;;;;5050129;28;20173;-57
2022/06/16 10:38:37;;;;;;;9.00;4.00;;;26.60;99.90;;;;;;5041584;28;20170;-58
2022/06/16 10:41:07;;;;;;;11.73;4.57;;;26.80;99.90;;;;;;5030549;28;20631;-58
2022/06/16 10:43:39;;;;;;;9.82;4.35;;;26.90;99.90;;;;;;5044555;28;20177;-58
2022/06/16 10:46:13;;;;;;;10.38;4.97;;;26.70;99.90;;;;;;5050444;28;20165;-58
2022/06/16 10:48:47;;;;;;;15.05;5.25;;;26.50;99.90;;;;;;5050628;28;20291;-58
2022/06/16 10:51:29;;;;;;;11.30;4.88;;;26.20;99.90;;;;;;5050299;28;20212;-59
2022/06/16 10:54:12;;;;;;;11.75;4.50;;;25.20;99.90;;;;;;5050443;28;20173;-59
2022/06/16 10:56:40;;;;;;;9.80;4.57;;;25.60;99.90;;;;;;5030655;28;20182;-58
2022/06/16 10:59:19;;;;;;;9.82;4.15;;;25.80;99.90;;;;;;5030792;28;20295;-59
2022/06/16 11:01:47;;;;;;;10.52;4.03;;;26.00;99.90;;;;;;5030345;28;20217;-59
2022/06/16 11:04:18;;;;;;;14.50;4.20;;;26.30;99.90;;;;;;5030366;28;20212;-59
2022/06/16 11:06:53;;;;;;;7.95;3.53;;;26.60;99.90;;;;;;5030329;28;20180;-62
2022/06/16 11:09:30;;;;;;;8.52;4.38;;;26.80;99.90;;;;;;5030306;28;20201;-59
2022/06/16 11:11:59;;;;;;;6.47;3.72;;;27.10;99.90;;;;;;5030169;28;20268;-59
2022/06/16 11:14:51;;;;;;;8.95;3.60;;;26.90;99.90;;;;;;5030298;28;20170;-60
2022/06/16 11:17:26;;;;;;;6.90;3.70;;;27.40;99.90;;;;;;5030203;28;20186;-59
2022/06/16 11:20:15;;;;;;;12.80;4.40;;;27.30;99.90;;;;;;5030187;28;20671;-59
2022/06/16 11:22:44;;;;;;;9.35;3.88;;;27.20;99.90;;;;;;5030041;28;20193;-59
2022/06/16 11:25:30;;;;;;;8.52;3.60;;;27.40;99.90;;;;;;5030154;28;20178;-58
2022/06/16 11:28:12;;;;;;;11.57;4.32;;;27.70;99.90;;;;;;5030508;28;20170;-59
2022/06/16 11:30:41;;;;;;;11.30;4.20;;;28.10;99.90;;;;;;5030325;28;20288;-59
2022/06/16 11:34:06;;;;;;;9.27;3.60;;;28.40;99.90;;;;;;5030270;28;20312;-59
2022/06/16 11:36:13;;;;;;;14.13;4.40;;;28.90;99.90;;;;;;5032745;28;20227;-58
2022/06/16 11:39:02;;;;;;;18.10;4.32;;;28.50;99.90;;;;;;5033810;28;20197;-58
2022/06/16 11:41:29;;;;;;;22.33;4.50;;;28.60;99.90;;;;;;5033581;28;20177;-58
2022/06/16 11:44:02;;;;;;;10.48;3.70;;;28.60;99.90;;;;;;5033751;28;20170;-58
2022/06/16 11:47:06;;;;;;;20.58;4.40;;;29.40;99.90;;;;;;5033973;28;20340;-59
2022/06/16 11:49:47;;;;;;;7.20;4.13;;;29.70;99.90;;;;;;5033452;28;20237;-59
2022/06/16 11:52:30;;;;;;;13.23;4.65;;;30.00;99.90;;;;;;5033246;28;20248;-59
2022/06/16 11:55:05;;;;;;;8.77;3.67;;;30.10;99.90;;;;;;5033376;28;20917;-59
2022/06/16 11:57:53;;;;;;;8.73;3.33;;;29.60;99.90;;;;;;5033204;28;20205;-58
2022/06/16 12:00:36;;;;;;;11.70;3.70;;;29.00;99.90;;;;;;5033245;28;20268;-59
2022/06/16 12:03:01;;;;;;;14.93;3.47;;;29.10;99.90;;;;;;5033106;28;20265;-59
2022/06/16 12:05:33;;;;;;;8.88;3.38;;;29.60;99.90;;;;;;5033423;28;20284;-59
2022/06/16 12:08:10;;;;;;;14.48;2.40;;;30.20;99.90;;;;;;5033379;28;20244;-59
2022/06/16 12:11:09;;;;;;;7.35;2.15;;;30.50;99.90;;;;;;5033151;28;20213;-58
2022/06/16 12:14:03;;;;;;;6.40;2.40;;;30.00;99.90;;;;;;5033067;28;20227;-58
2022/06/16 12:16:33;;;;;;;4.57;2.00;;;28.50;99.90;;;;;;5007166;28;20186;-59
2022/06/16 12:19:37;;;;;;;7.60;2.30;;;29.10;99.90;;;;;;5033078;28;20174;-59
2022/06/16 12:22:21;;;;;;;8.85;2.33;;;29.40;99.90;;;;;;5033293;28;20210;-59
2022/06/16 12:25:04;;;;;;;4.30;2.10;;;29.40;99.90;;;;;;5032967;28;20178;-59
2022/06/16 12:27:59;;;;;;;4.10;2.15;;;30.60;99.90;;;;;;5032960;28;20211;-59
2022/06/16 12:30:55;;;;;;;6.28;2.58;;;30.50;99.90;;;;;;5024636;28;20416;-58
2022/06/16 12:33:44;;;;;;;3.47;1.60;;;30.90;99.90;;;;;;5033242;28;20181;-58
2022/06/16 12:36:15;;;;;;;10.13;2.33;;;30.80;99.90;;;;;;5032264;28;20189;-58
2022/06/16 12:39:11;;;;;;;9.82;1.85;;;31.00;99.90;;;;;;5032733;28;20170;-58
2022/06/16 12:41:45;;;;;;;9.10;2.33;;;30.70;99.90;;;;;;5032701;28;20201;-58
2022/06/16 12:44:32;;;;;;;5.88;1.83;;;31.30;99.90;;;;;;5032617;28;20176;-59
2022/06/16 12:47:13;;;;;;;6.13;2.10;;;32.10;99.90;;;;;;5032370;28;20181;-58
2022/06/16 12:49:51;;;;;;;4.88;1.77;;;31.80;99.90;;;;;;5032404;28;20217;-59
2022/06/16 12:52:43;;;;;;;4.22;1.73;;;31.90;99.90;;;;;;5032213;28;20217;-59
2022/06/16 12:55:24;;;;;;;5.30;2.00;;;31.70;99.90;;;;;;5031694;28;20189;-58
2022/06/16 12:58:22;;;;;;;5.57;1.77;;;32.50;99.90;;;;;;5032181;28;20172;-58
2022/06/16 13:00:57;;;;;;;5.05;1.70;;;32.40;99.90;;;;;;5026702;28;20186;-59
2022/06/16 13:03:36;;;;;;;4.57;1.70;;;32.20;99.90;;;;;;5032222;28;20255;-58
2022/06/16 13:06:04;;;;;;;3.63;1.52;;;32.10;99.90;;;;;;5035156;28;20189;-58
2022/06/16 13:08:34;;;;;;;4.95;1.40;;;32.20;99.90;;;;;;5049134;28;20193;-58
2022/06/16 13:11:03;;;;;;;5.50;1.60;;;32.40;99.90;;;;;;5047604;28;20202;-58
2022/06/16 13:13:37;;;;;;;3.35;1.38;;;32.40;99.90;;;;;;5031958;28;20181;-59
2022/06/16 13:16:04;;;;;;;5.97;1.83;;;32.20;99.90;;;;;;5031930;28;20174;-58
2022/06/16 13:18:56;;;;;;;5.65;1.60;;;32.50;99.90;;;;;;5031943;28;20170;-59
2022/06/16 13:21:28;;;;;;;3.05;1.55;;;32.80;99.90;;;;;;5031709;28;20178;-58
2022/06/16 13:24:10;;;;;;;4.82;1.50;;;32.50;99.90;;;;;;5041828;28;20546;-58
2022/06/16 13:26:42;;;;;;;2.63;1.35;;;32.50;99.90;;;;;;5051782;28;20180;-58
2022/06/16 13:29:18;;;;;;;6.53;2.00;;;33.60;99.90;;;;;;5051631;28;20247;-59
2022/06/16 13:31:46;;;;;;;5.25;1.88;;;34.20;99.90;;;;;;5051622;28;20180;-59
2022/06/16 13:34:14;;;;;;;4.88;1.73;;;34.40;99.90;;;;;;5051543;28;20181;-59
2022/06/16 13:36:49;;;;;;;7.07;1.90;;;34.50;99.90;;;;;;5051493;28;20184;-59
2022/06/16 13:39:49;;;;;;;5.60;1.90;;;35.00;99.90;;;;;;5051487;28;20176;-59